sensor_id;sensor_type;location;lat;lon;timestamp;P1;durP1;ratioP1;P2;durP2;ratioP2
20454;SDS011;10386;54.314;10.022;2024-01-15T00:00:21;10.83;;;1.83;;
20454;SDS011;10386;54.314;10.022;2024-01-15T00:02:49;12.30;;;1.90;;
20454;SDS011;10386;54.314;10.022;2024-01-15T00:05:16;13.23;;;2.70;;
20454;SDS011;10386;54.314;10.022;2024-01-15T00:07:42;8.00;;;2.00;;
20454;SDS011;10386;54.314;10.022;2024-01-15T00:10:09;12.65;;;2.28;;
20454;SDS011;10386;54.314;10.022;2024-01-15T00:12:36;4.07;;;1.30;;
20454;SDS011;10386;54.314;10.022;2024-01-15T00:15:03;6.23;;;1.83;;
20454;SDS011;10386;54.314;10.022;2024-01-15T00:17:31;6.70;;;1.70;;
20454;SDS011;10386;54.314;10.022;2024-01-15T00:19:58;7.27;;;1.80;;
20454;SDS011;10386;54.314;10.022;2024-01-15T00:22:25;5.03;;;1.73;;
20454;SDS011;10386;54.314;10.022;2024-01-15T00:24:53;8.37;;;2.20;;
20454;SDS011;10386;54.314;10.022;2024-01-15T00:27:20;7.77;;;1.90;;
20454;SDS011;10386;54.314;10.022;2024-01-15T00:29:48;2.97;;;1.60;;
20454;SDS011;10386;54.314;10.022;2024-01-15T00:32:16;4.83;;;1.57;;
20454;SDS011;10386;54.314;10.022;2024-01-15T00:34:43;12.00;;;1.93;;
20454;SDS011;10386;54.314;10.022;2024-01-15T00:37:10;17.50;;;1.80;;
20454;SDS011;10386;54.314;10.022;2024-01-15T00:39:37;8.73;;;2.30;;
20454;SDS011;10386;54.314;10.022;2024-01-15T00:42:03;16.93;;;2.30;;
20454;SDS011;10386;54.314;10.022;2024-01-15T00:44:31;11.73;;;2.60;;
20454;SDS011;10386;54.314;10.022;2024-01-15T00:46:58;7.70;;;2.37;;
20454;SDS011;10386;54.314;10.022;2024-01-15T00:49:24;12.47;;;2.50;;
20454;SDS011;10386;54.314;10.022;2024-01-15T00:51:51;17.60;;;3.57;;
20454;SDS011;10386;54.314;10.022;2024-01-15T00:54:18;13.23;;;2.47;;
20454;SDS011;10386;54.314;10.022;2024-01-15T00:56:45;13.50;;;2.50;;
20454;SDS011;10386;54.314;10.022;2024-01-15T00:59:11;21.50;;;3.30;;
20454;SDS011;10386;54.314;10.022;2024-01-15T01:01:42;12.30;;;2.87;;
20454;SDS011;10386;54.314;10.022;2024-01-15T01:04:09;23.20;;;2.97;;
20454;SDS011;10386;54.314;10.022;2024-01-15T01:06:37;25.63;;;3.63;;
20454;SDS011;10386;54.314;10.022;2024-01-15T01:09:04;20.30;;;3.13;;
20454;SDS011;10386;54.314;10.022;2024-01-15T01:11:31;25.87;;;3.67;;
20454;SDS011;10386;54.314;10.022;2024-01-15T01:13:58;21.77;;;3.23;;
20454;SDS011;10386;54.314;10.022;2024-01-15T01:16:25;29.27;;;3.63;;
20454;SDS011;10386;54.314;10.022;2024-01-15T01:18:52;20.50;;;4.10;;
20454;SDS011;10386;54.314;10.022;2024-01-15T01:21:19;25.17;;;3.27;;
20454;SDS011;10386;54.314;10.022;2024-01-15T01:23:46;17.00;;;2.90;;
20454;SDS011;10386;54.314;10.022;2024-01-15T01:26:17;31.37;;;4.33;;
20454;SDS011;10386;54.314;10.022;2024-01-15T01:28:44;14.77;;;3.30;;
20454;SDS011;10386;54.314;10.022;2024-01-15T01:31:11;26.17;;;4.20;;
20454;SDS011;10386;54.314;10.022;2024-01-15T01:33:39;22.80;;;3.33;;
20454;SDS011;10386;54.314;10.022;2024-01-15T01:36:07;18.97;;;3.73;;
20454;SDS011;10386;54.314;10.022;2024-01-15T01:38:37;15.63;;;3.50;;
20454;SDS011;10386;54.314;10.022;2024-01-15T01:41:04;22.80;;;3.07;;
20454;SDS011;10386;54.314;10.022;2024-01-15T01:43:31;23.57;;;3.27;;
20454;SDS011;10386;54.314;10.022;2024-01-15T01:45:59;18.30;;;3.43;;
20454;SDS011;10386;54.314;10.022;2024-01-15T01:48:27;11.80;;;3.03;;
20454;SDS011;10386;54.314;10.022;2024-01-15T01:51:00;15.03;;;3.00;;
20454;SDS011;10386;54.314;10.022;2024-01-15T01:53:28;12.90;;;2.90;;
20454;SDS011;10386;54.314;10.022;2024-01-15T01:55:56;19.13;;;3.10;;
20454;SDS011;10386;54.314;10.022;2024-01-15T01:58:23;20.50;;;2.80;;
20454;SDS011;10386;54.314;10.022;2024-01-15T02:00:52;25.60;;;3.40;;
20454;SDS011;10386;54.314;10.022;2024-01-15T02:03:20;13.73;;;2.93;;
20454;SDS011;10386;54.314;10.022;2024-01-15T02:05:47;16.57;;;3.30;;
20454;SDS011;10386;54.314;10.022;2024-01-15T02:08:16;15.63;;;2.93;;
20454;SDS011;10386;54.314;10.022;2024-01-15T02:10:43;9.73;;;2.80;;
20454;SDS011;10386;54.314;10.022;2024-01-15T02:13:09;19.30;;;3.20;;
20454;SDS011;10386;54.314;10.022;2024-01-15T02:15:36;24.07;;;2.93;;
20454;SDS011;10386;54.314;10.022;2024-01-15T02:18:04;14.57;;;2.50;;
20454;SDS011;10386;54.314;10.022;2024-01-15T02:20:33;20.27;;;3.53;;
20454;SDS011;10386;54.314;10.022;2024-01-15T02:23:43;16.97;;;2.83;;
20454;SDS011;10386;54.314;10.022;2024-01-15T02:25:51;14.93;;;3.20;;
20454;SDS011;10386;54.314;10.022;2024-01-15T02:28:18;20.30;;;3.33;;
20454;SDS011;10386;54.314;10.022;2024-01-15T02:30:45;12.53;;;2.67;;
20454;SDS011;10386;54.314;10.022;2024-01-15T02:33:12;10.67;;;2.13;;
20454;SDS011;10386;54.314;10.022;2024-01-15T02:35:39;10.57;;;2.50;;
20454;SDS011;10386;54.314;10.022;2024-01-15T02:38:07;15.30;;;3.37;;
20454;SDS011;10386;54.314;10.022;2024-01-15T02:40:34;13.87;;;3.10;;
20454;SDS011;10386;54.314;10.022;2024-01-15T02:43:02;23.37;;;3.10;;
20454;SDS011;10386;54.314;10.022;2024-01-15T02:45:28;20.37;;;3.07;;
20454;SDS011;10386;54.314;10.022;2024-01-15T02:47:55;15.00;;;2.80;;
20454;SDS011;10386;54.314;10.022;2024-01-15T02:50:22;10.57;;;2.33;;
20454;SDS011;10386;54.314;10.022;2024-01-15T02:52:49;24.20;;;2.97;;
20454;SDS011;10386;54.314;10.022;2024-01-15T02:55:16;13.83;;;3.20;;
20454;SDS011;10386;54.314;10.022;2024-01-15T02:57:43;17.87;;;2.97;;
20454;SDS011;10386;54.314;10.022;2024-01-15T03:00:10;11.93;;;3.30;;
20454;SDS011;10386;54.314;10.022;2024-01-15T03:02:41;11.63;;;2.93;;
20454;SDS011;10386;54.314;10.022;2024-01-15T03:05:13;17.33;;;2.50;;
20454;SDS011;10386;54.314;10.022;2024-01-15T03:07:40;13.87;;;2.80;;
20454;SDS011;10386;54.314;10.022;2024-01-15T03:10:07;20.33;;;2.90;;
20454;SDS011;10386;54.314;10.022;2024-01-15T03:12:34;13.07;;;2.60;;
20454;SDS011;10386;54.314;10.022;2024-01-15T03:15:01;12.43;;;3.40;;
20454;SDS011;10386;54.314;10.022;2024-01-15T03:17:29;15.07;;;2.80;;
20454;SDS011;10386;54.314;10.022;2024-01-15T03:19:56;11.00;;;2.37;;
20454;SDS011;10386;54.314;10.022;2024-01-15T03:22:23;10.10;;;2.70;;
20454;SDS011;10386;54.314;10.022;2024-01-15T03:24:50;8.50;;;2.20;;
20454;SDS011;10386;54.314;10.022;2024-01-15T03:27:17;16.03;;;2.40;;
20454;SDS011;10386;54.314;10.022;2024-01-15T03:29:43;17.27;;;3.23;;
20454;SDS011;10386;54.314;10.022;2024-01-15T03:32:10;15.83;;;2.47;;
20454;SDS011;10386;54.314;10.022;2024-01-15T03:34:37;16.13;;;2.23;;
20454;SDS011;10386;54.314;10.022;2024-01-15T03:37:04;8.40;;;2.70;;
20454;SDS011;10386;54.314;10.022;2024-01-15T03:39:31;8.70;;;1.93;;
20454;SDS011;10386;54.314;10.022;2024-01-15T03:41:58;9.60;;;2.50;;
20454;SDS011;10386;54.314;10.022;2024-01-15T03:44:25;7.77;;;2.03;;
20454;SDS011;10386;54.314;10.022;2024-01-15T03:46:52;15.90;;;2.40;;
20454;SDS011;10386;54.314;10.022;2024-01-15T03:49:19;11.03;;;1.97;;
20454;SDS011;10386;54.314;10.022;2024-01-15T03:51:46;14.37;;;2.77;;
20454;SDS011;10386;54.314;10.022;2024-01-15T03:54:13;14.37;;;2.67;;
20454;SDS011;10386;54.314;10.022;2024-01-15T03:56:42;13.10;;;2.13;;
20454;SDS011;10386;54.314;10.022;2024-01-15T03:59:09;9.17;;;2.27;;
20454;SDS011;10386;54.314;10.022;2024-01-15T04:01:36;10.43;;;2.23;;
20454;SDS011;10386;54.314;10.022;2024-01-15T04:04:03;10.90;;;2.33;;
20454;SDS011;10386;54.314;10.022;2024-01-15T04:06:30;14.00;;;2.17;;
20454;SDS011;10386;54.314;10.022;2024-01-15T04:08:58;18.73;;;3.43;;
20454;SDS011;10386;54.314;10.022;2024-01-15T04:11:25;9.77;;;2.20;;
20454;SDS011;10386;54.314;10.022;2024-01-15T04:13:52;16.23;;;2.50;;
20454;SDS011;10386;54.314;10.022;2024-01-15T04:16:18;19.97;;;2.97;;
20454;SDS011;10386;54.314;10.022;2024-01-15T04:18:46;15.60;;;2.20;;
20454;SDS011;10386;54.314;10.022;2024-01-15T04:21:13;17.03;;;2.23;;
20454;SDS011;10386;54.314;10.022;2024-01-15T04:23:40;12.00;;;2.27;;
20454;SDS011;10386;54.314;10.022;2024-01-15T04:26:07;10.07;;;2.07;;
20454;SDS011;10386;54.314;10.022;2024-01-15T04:28:33;14.57;;;2.60;;
20454;SDS011;10386;54.314;10.022;2024-01-15T04:31:00;12.10;;;3.40;;
20454;SDS011;10386;54.314;10.022;2024-01-15T04:33:27;7.43;;;1.83;;
20454;SDS011;10386;54.314;10.022;2024-01-15T04:35:54;10.97;;;2.53;;
20454;SDS011;10386;54.314;10.022;2024-01-15T04:38:21;16.37;;;3.33;;
20454;SDS011;10386;54.314;10.022;2024-01-15T04:40:48;11.93;;;2.27;;
20454;SDS011;10386;54.314;10.022;2024-01-15T04:43:15;14.10;;;2.30;;
20454;SDS011;10386;54.314;10.022;2024-01-15T04:45:42;14.37;;;2.53;;
20454;SDS011;10386;54.314;10.022;2024-01-15T04:48:09;19.57;;;2.73;;
20454;SDS011;10386;54.314;10.022;2024-01-15T04:50:36;15.17;;;2.47;;
20454;SDS011;10386;54.314;10.022;2024-01-15T04:53:03;14.13;;;3.07;;
20454;SDS011;10386;54.314;10.022;2024-01-15T04:55:30;19.87;;;3.00;;
20454;SDS011;10386;54.314;10.022;2024-01-15T04:57:56;15.80;;;2.93;;
20454;SDS011;10386;54.314;10.022;2024-01-15T05:00:23;10.70;;;2.57;;
20454;SDS011;10386;54.314;10.022;2024-01-15T05:02:50;22.23;;;3.97;;
20454;SDS011;10386;54.314;10.022;2024-01-15T05:05:17;12.13;;;3.07;;
20454;SDS011;10386;54.314;10.022;2024-01-15T05:07:43;13.87;;;2.73;;
20454;SDS011;10386;54.314;10.022;2024-01-15T05:10:10;17.33;;;2.70;;
20454;SDS011;10386;54.314;10.022;2024-01-15T05:12:37;16.20;;;3.67;;
20454;SDS011;10386;54.314;10.022;2024-01-15T05:15:04;9.73;;;2.43;;
20454;SDS011;10386;54.314;10.022;2024-01-15T05:17:31;11.73;;;3.00;;
20454;SDS011;10386;54.314;10.022;2024-01-15T05:19:58;18.60;;;3.77;;
20454;SDS011;10386;54.314;10.022;2024-01-15T05:22:25;11.20;;;2.40;;
20454;SDS011;10386;54.314;10.022;2024-01-15T05:24:52;11.63;;;2.87;;
20454;SDS011;10386;54.314;10.022;2024-01-15T05:27:19;16.67;;;3.33;;
20454;SDS011;10386;54.314;10.022;2024-01-15T05:29:46;13.47;;;2.37;;
20454;SDS011;10386;54.314;10.022;2024-01-15T05:32:13;10.27;;;2.33;;
20454;SDS011;10386;54.314;10.022;2024-01-15T05:34:40;16.03;;;2.57;;
20454;SDS011;10386;54.314;10.022;2024-01-15T05:37:07;13.80;;;2.70;;
20454;SDS011;10386;54.314;10.022;2024-01-15T05:39:33;14.33;;;2.53;;
20454;SDS011;10386;54.314;10.022;2024-01-15T05:42:00;7.73;;;2.23;;
20454;SDS011;10386;54.314;10.022;2024-01-15T05:44:28;10.27;;;2.47;;
20454;SDS011;10386;54.314;10.022;2024-01-15T05:46:55;10.33;;;2.63;;
20454;SDS011;10386;54.314;10.022;2024-01-15T05:49:22;12.67;;;2.63;;
20454;SDS011;10386;54.314;10.022;2024-01-15T05:51:49;11.00;;;2.40;;
20454;SDS011;10386;54.314;10.022;2024-01-15T05:54:20;7.93;;;2.30;;
20454;SDS011;10386;54.314;10.022;2024-01-15T05:56:47;17.17;;;3.53;;
20454;SDS011;10386;54.314;10.022;2024-01-15T05:59:14;8.10;;;2.23;;
20454;SDS011;10386;54.314;10.022;2024-01-15T06:01:41;14.43;;;2.93;;
20454;SDS011;10386;54.314;10.022;2024-01-15T06:04:08;8.10;;;2.27;;
20454;SDS011;10386;54.314;10.022;2024-01-15T06:06:35;13.50;;;2.40;;
20454;SDS011;10386;54.314;10.022;2024-01-15T06:09:02;9.00;;;1.80;;
20454;SDS011;10386;54.314;10.022;2024-01-15T06:11:32;11.93;;;2.23;;
20454;SDS011;10386;54.314;10.022;2024-01-15T06:13:59;13.27;;;3.17;;
20454;SDS011;10386;54.314;10.022;2024-01-15T06:16:28;13.10;;;2.00;;
20454;SDS011;10386;54.314;10.022;2024-01-15T06:18:55;6.20;;;1.80;;
20454;SDS011;10386;54.314;10.022;2024-01-15T06:21:22;13.90;;;2.20;;
20454;SDS011;10386;54.314;10.022;2024-01-15T06:23:49;10.30;;;1.70;;
20454;SDS011;10386;54.314;10.022;2024-01-15T06:26:16;3.73;;;1.90;;
20454;SDS011;10386;54.314;10.022;2024-01-15T06:28:43;14.17;;;2.13;;
20454;SDS011;10386;54.314;10.022;2024-01-15T06:31:10;10.93;;;2.00;;
20454;SDS011;10386;54.314;10.022;2024-01-15T06:33:37;18.10;;;2.53;;
20454;SDS011;10386;54.314;10.022;2024-01-15T06:36:05;12.70;;;1.90;;
20454;SDS011;10386;54.314;10.022;2024-01-15T06:38:32;10.03;;;2.07;;
20454;SDS011;10386;54.314;10.022;2024-01-15T06:40:59;8.57;;;2.10;;
20454;SDS011;10386;54.314;10.022;2024-01-15T06:43:26;10.97;;;2.50;;
20454;SDS011;10386;54.314;10.022;2024-01-15T06:45:53;19.33;;;2.03;;
20454;SDS011;10386;54.314;10.022;2024-01-15T06:48:20;7.10;;;1.83;;
20454;SDS011;10386;54.314;10.022;2024-01-15T06:50:47;8.13;;;2.00;;
20454;SDS011;10386;54.314;10.022;2024-01-15T06:53:14;7.73;;;2.20;;
20454;SDS011;10386;54.314;10.022;2024-01-15T06:55:41;20.37;;;2.47;;
20454;SDS011;10386;54.314;10.022;2024-01-15T06:58:08;12.07;;;2.70;;
20454;SDS011;10386;54.314;10.022;2024-01-15T07:00:34;5.47;;;1.90;;
20454;SDS011;10386;54.314;10.022;2024-01-15T07:03:02;9.83;;;2.37;;
20454;SDS011;10386;54.314;10.022;2024-01-15T07:05:29;12.00;;;2.50;;
20454;SDS011;10386;54.314;10.022;2024-01-15T07:07:57;9.00;;;2.17;;
20454;SDS011;10386;54.314;10.022;2024-01-15T07:10:24;11.07;;;2.10;;
20454;SDS011;10386;54.314;10.022;2024-01-15T07:12:52;6.93;;;1.90;;
20454;SDS011;10386;54.314;10.022;2024-01-15T07:15:20;13.33;;;3.20;;
20454;SDS011;10386;54.314;10.022;2024-01-15T07:17:47;11.70;;;2.53;;
20454;SDS011;10386;54.314;10.022;2024-01-15T07:20:14;10.70;;;2.33;;
20454;SDS011;10386;54.314;10.022;2024-01-15T07:22:41;9.20;;;2.47;;
20454;SDS011;10386;54.314;10.022;2024-01-15T07:25:08;12.53;;;2.20;;
20454;SDS011;10386;54.314;10.022;2024-01-15T07:27:34;10.40;;;2.37;;
20454;SDS011;10386;54.314;10.022;2024-01-15T07:30:01;11.63;;;2.00;;
20454;SDS011;10386;54.314;10.022;2024-01-15T07:32:30;11.20;;;2.33;;
20454;SDS011;10386;54.314;10.022;2024-01-15T07:34:58;12.23;;;3.10;;
20454;SDS011;10386;54.314;10.022;2024-01-15T07:37:26;14.20;;;2.40;;
20454;SDS011;10386;54.314;10.022;2024-01-15T07:39:53;12.73;;;2.67;;
20454;SDS011;10386;54.314;10.022;2024-01-15T07:42:19;19.67;;;2.60;;
20454;SDS011;10386;54.314;10.022;2024-01-15T07:44:46;19.07;;;3.43;;
20454;SDS011;10386;54.314;10.022;2024-01-15T07:47:13;21.23;;;4.00;;
20454;SDS011;10386;54.314;10.022;2024-01-15T07:49:40;14.20;;;2.30;;
20454;SDS011;10386;54.314;10.022;2024-01-15T07:52:07;11.83;;;3.03;;
20454;SDS011;10386;54.314;10.022;2024-01-15T07:54:37;15.60;;;2.40;;
20454;SDS011;10386;54.314;10.022;2024-01-15T07:57:04;15.20;;;3.10;;
20454;SDS011;10386;54.314;10.022;2024-01-15T07:59:31;11.13;;;2.37;;
20454;SDS011;10386;54.314;10.022;2024-01-15T08:01:58;9.97;;;2.77;;
20454;SDS011;10386;54.314;10.022;2024-01-15T08:04:26;3.10;;;1.80;;
20454;SDS011;10386;54.314;10.022;2024-01-15T08:06:54;26.87;;;3.93;;
20454;SDS011;10386;54.314;10.022;2024-01-15T08:09:21;12.03;;;2.23;;
20454;SDS011;10386;54.314;10.022;2024-01-15T08:11:48;5.23;;;1.97;;
20454;SDS011;10386;54.314;10.022;2024-01-15T08:14:15;15.13;;;2.60;;
20454;SDS011;10386;54.314;10.022;2024-01-15T08:16:42;13.03;;;2.77;;
20454;SDS011;10386;54.314;10.022;2024-01-15T08:19:10;8.63;;;2.20;;
20454;SDS011;10386;54.314;10.022;2024-01-15T08:21:37;7.40;;;1.97;;
20454;SDS011;10386;54.314;10.022;2024-01-15T08:24:04;9.80;;;2.27;;
20454;SDS011;10386;54.314;10.022;2024-01-15T08:26:32;11.23;;;2.30;;
20454;SDS011;10386;54.314;10.022;2024-01-15T08:28:59;3.40;;;2.07;;
20454;SDS011;10386;54.314;10.022;2024-01-15T08:31:26;8.67;;;2.53;;
20454;SDS011;10386;54.314;10.022;2024-01-15T08:33:54;9.10;;;2.10;;
20454;SDS011;10386;54.314;10.022;2024-01-15T08:36:22;6.70;;;2.40;;
20454;SDS011;10386;54.314;10.022;2024-01-15T08:38:51;5.07;;;1.77;;
20454;SDS011;10386;54.314;10.022;2024-01-15T08:41:20;6.10;;;1.80;;
20454;SDS011;10386;54.314;10.022;2024-01-15T08:43:47;3.40;;;1.43;;
20454;SDS011;10386;54.314;10.022;2024-01-15T08:46:14;6.47;;;1.97;;
20454;SDS011;10386;54.314;10.022;2024-01-15T08:48:41;5.73;;;1.37;;
20454;SDS011;10386;54.314;10.022;2024-01-15T08:51:08;4.30;;;1.97;;
20454;SDS011;10386;54.314;10.022;2024-01-15T08:53:35;5.17;;;2.00;;
20454;SDS011;10386;54.314;10.022;2024-01-15T08:56:02;7.27;;;2.13;;
20454;SDS011;10386;54.314;10.022;2024-01-15T08:58:29;6.70;;;2.13;;
20454;SDS011;10386;54.314;10.022;2024-01-15T09:00:59;6.37;;;1.97;;
20454;SDS011;10386;54.314;10.022;2024-01-15T09:03:26;5.57;;;1.87;;
20454;SDS011;10386;54.314;10.022;2024-01-15T09:05:54;5.47;;;1.87;;
20454;SDS011;10386;54.314;10.022;2024-01-15T09:08:21;6.93;;;2.50;;
20454;SDS011;10386;54.314;10.022;2024-01-15T09:10:48;5.10;;;2.03;;
20454;SDS011;10386;54.314;10.022;2024-01-15T09:13:15;9.73;;;1.93;;
20454;SDS011;10386;54.314;10.022;2024-01-15T09:15:43;4.77;;;1.87;;
20454;SDS011;10386;54.314;10.022;2024-01-15T09:18:10;4.18;;;1.60;;
20454;SDS011;10386;54.314;10.022;2024-01-15T09:20:37;6.60;;;1.50;;
20454;SDS011;10386;54.314;10.022;2024-01-15T09:23:04;5.47;;;2.73;;
20454;SDS011;10386;54.314;10.022;2024-01-15T09:25:31;5.23;;;2.23;;
20454;SDS011;10386;54.314;10.022;2024-01-15T09:27:58;9.33;;;2.50;;
20454;SDS011;10386;54.314;10.022;2024-01-15T09:30:25;2.57;;;1.50;;
20454;SDS011;10386;54.314;10.022;2024-01-15T09:32:52;1.83;;;1.20;;
20454;SDS011;10386;54.314;10.022;2024-01-15T09:35:19;1.37;;;1.27;;
20454;SDS011;10386;54.314;10.022;2024-01-15T09:37:50;2.93;;;1.50;;
20454;SDS011;10386;54.314;10.022;2024-01-15T09:40:20;3.50;;;1.70;;
20454;SDS011;10386;54.314;10.022;2024-01-15T09:42:48;4.37;;;1.60;;
20454;SDS011;10386;54.314;10.022;2024-01-15T09:45:16;2.30;;;1.30;;
20454;SDS011;10386;54.314;10.022;2024-01-15T09:47:43;2.67;;;1.67;;
20454;SDS011;10386;54.314;10.022;2024-01-15T09:50:12;3.43;;;1.90;;
20454;SDS011;10386;54.314;10.022;2024-01-15T09:52:42;5.17;;;1.53;;
20454;SDS011;10386;54.314;10.022;2024-01-15T09:55:10;6.77;;;2.67;;
20454;SDS011;10386;54.314;10.022;2024-01-15T09:57:38;2.80;;;1.30;;
20454;SDS011;10386;54.314;10.022;2024-01-15T10:00:06;2.67;;;1.80;;
20454;SDS011;10386;54.314;10.022;2024-01-15T10:02:37;4.97;;;1.40;;
20454;SDS011;10386;54.314;10.022;2024-01-15T10:05:04;4.40;;;2.20;;
20454;SDS011;10386;54.314;10.022;2024-01-15T10:07:32;4.20;;;1.17;;
20454;SDS011;10386;54.314;10.022;2024-01-15T10:10:04;1.30;;;1.20;;
20454;SDS011;10386;54.314;10.022;2024-01-15T10:12:32;3.33;;;1.30;;
20454;SDS011;10386;54.314;10.022;2024-01-15T10:14:59;2.90;;;1.10;;
20454;SDS011;10386;54.314;10.022;2024-01-15T10:17:26;1.90;;;1.13;;
20454;SDS011;10386;54.314;10.022;2024-01-15T10:19:54;6.47;;;1.43;;
20454;SDS011;10386;54.314;10.022;2024-01-15T10:22:21;2.57;;;1.20;;
20454;SDS011;10386;54.314;10.022;2024-01-15T10:24:49;4.03;;;1.43;;
20454;SDS011;10386;54.314;10.022;2024-01-15T10:27:16;2.70;;;1.20;;
20454;SDS011;10386;54.314;10.022;2024-01-15T10:29:43;2.73;;;1.40;;
20454;SDS011;10386;54.314;10.022;2024-01-15T10:32:10;3.60;;;1.23;;
20454;SDS011;10386;54.314;10.022;2024-01-15T10:34:39;3.80;;;1.30;;
20454;SDS011;10386;54.314;10.022;2024-01-15T10:37:08;1.60;;;1.30;;
20454;SDS011;10386;54.314;10.022;2024-01-15T10:39:36;5.00;;;1.40;;
20454;SDS011;10386;54.314;10.022;2024-01-15T10:42:04;4.50;;;1.33;;
20454;SDS011;10386;54.314;10.022;2024-01-15T10:44:34;5.47;;;1.50;;
20454;SDS011;10386;54.314;10.022;2024-01-15T10:47:02;4.77;;;1.50;;
20454;SDS011;10386;54.314;10.022;2024-01-15T10:49:32;3.90;;;1.23;;
20454;SDS011;10386;54.314;10.022;2024-01-15T10:52:03;2.87;;;1.27;;
20454;SDS011;10386;54.314;10.022;2024-01-15T10:54:30;4.17;;;1.40;;
20454;SDS011;10386;54.314;10.022;2024-01-15T10:56:59;2.93;;;1.57;;
20454;SDS011;10386;54.314;10.022;2024-01-15T10:59:26;1.23;;;1.13;;
20454;SDS011;10386;54.314;10.022;2024-01-15T11:01:53;2.67;;;1.67;;
20454;SDS011;10386;54.314;10.022;2024-01-15T11:04:22;5.20;;;1.17;;
20454;SDS011;10386;54.314;10.022;2024-01-15T11:06:52;4.33;;;1.33;;
20454;SDS011;10386;54.314;10.022;2024-01-15T11:09:22;4.33;;;1.33;;
20454;SDS011;10386;54.314;10.022;2024-01-15T11:11:52;5.60;;;1.23;;
20454;SDS011;10386;54.314;10.022;2024-01-15T11:14:39;4.10;;;1.40;;
20454;SDS011;10386;54.314;10.022;2024-01-15T11:17:10;2.60;;;1.40;;
20454;SDS011;10386;54.314;10.022;2024-01-15T11:22:09;4.00;;;1.70;;
20454;SDS011;10386;54.314;10.022;2024-01-15T11:24:39;2.00;;;1.50;;
20454;SDS011;10386;54.314;10.022;2024-01-15T11:27:07;1.37;;;1.13;;
20454;SDS011;10386;54.314;10.022;2024-01-15T11:29:35;2.90;;;1.43;;
20454;SDS011;10386;54.314;10.022;2024-01-15T11:34:50;5.73;;;1.33;;
20454;SDS011;10386;54.314;10.022;2024-01-15T11:37:25;2.63;;;1.40;;
20454;SDS011;10386;54.314;10.022;2024-01-15T11:39:53;4.57;;;1.60;;
20454;SDS011;10386;54.314;10.022;2024-01-15T11:42:26;5.00;;;1.50;;
20454;SDS011;10386;54.314;10.022;2024-01-15T11:44:54;4.73;;;1.37;;
20454;SDS011;10386;54.314;10.022;2024-01-15T11:47:32;2.90;;;1.13;;
20454;SDS011;10386;54.314;10.022;2024-01-15T11:50:06;3.17;;;1.40;;
20454;SDS011;10386;54.314;10.022;2024-01-15T11:52:38;5.30;;;1.30;;
20454;SDS011;10386;54.314;10.022;2024-01-15T11:55:13;3.23;;;1.30;;
20454;SDS011;10386;54.314;10.022;2024-01-15T11:57:47;3.53;;;1.00;;
20454;SDS011;10386;54.314;10.022;2024-01-15T12:00:17;4.23;;;1.20;;
20454;SDS011;10386;54.314;10.022;2024-01-15T12:02:45;2.40;;;1.17;;
20454;SDS011;10386;54.314;10.022;2024-01-15T12:05:13;3.10;;;1.07;;
20454;SDS011;10386;54.314;10.022;2024-01-15T12:07:44;3.20;;;1.20;;
20454;SDS011;10386;54.314;10.022;2024-01-15T12:10:14;2.33;;;1.40;;
20454;SDS011;10386;54.314;10.022;2024-01-15T12:15:39;5.30;;;1.60;;
20454;SDS011;10386;54.314;10.022;2024-01-15T12:18:08;5.80;;;1.70;;
20454;SDS011;10386;54.314;10.022;2024-01-15T12:20:37;5.30;;;1.67;;
20454;SDS011;10386;54.314;10.022;2024-01-15T12:23:04;11.93;;;1.80;;
20454;SDS011;10386;54.314;10.022;2024-01-15T12:25:35;1.97;;;1.10;;
20454;SDS011;10386;54.314;10.022;2024-01-15T12:28:04;4.17;;;2.00;;
20454;SDS011;10386;54.314;10.022;2024-01-15T12:30:33;3.43;;;2.00;;
20454;SDS011;10386;54.314;10.022;2024-01-15T12:33:01;10.03;;;3.00;;
20454;SDS011;10386;54.314;10.022;2024-01-15T12:35:35;5.13;;;1.90;;
20454;SDS011;10386;54.314;10.022;2024-01-15T12:38:03;10.83;;;2.43;;
20454;SDS011;10386;54.314;10.022;2024-01-15T12:40:31;6.90;;;2.43;;
20454;SDS011;10386;54.314;10.022;2024-01-15T12:43:03;6.50;;;2.20;;
20454;SDS011;10386;54.314;10.022;2024-01-15T12:45:32;6.20;;;2.03;;
20454;SDS011;10386;54.314;10.022;2024-01-15T12:47:59;2.00;;;1.60;;
20454;SDS011;10386;54.314;10.022;2024-01-15T12:50:27;5.90;;;1.63;;
20454;SDS011;10386;54.314;10.022;2024-01-15T12:52:54;2.40;;;1.50;;
20454;SDS011;10386;54.314;10.022;2024-01-15T12:55:20;5.40;;;1.53;;
20454;SDS011;10386;54.314;10.022;2024-01-15T12:57:47;5.10;;;1.87;;
20454;SDS011;10386;54.314;10.022;2024-01-15T13:00:16;5.53;;;2.00;;
20454;SDS011;10386;54.314;10.022;2024-01-15T13:02:43;2.60;;;1.70;;
20454;SDS011;10386;54.314;10.022;2024-01-15T13:05:11;1.17;;;1.10;;
20454;SDS011;10386;54.314;10.022;2024-01-15T13:07:41;2.17;;;1.40;;
20454;SDS011;10386;54.314;10.022;2024-01-15T13:10:09;2.60;;;1.90;;
20454;SDS011;10386;54.314;10.022;2024-01-15T13:12:37;4.97;;;1.70;;
20454;SDS011;10386;54.314;10.022;2024-01-15T13:15:05;3.97;;;1.83;;
20454;SDS011;10386;54.314;10.022;2024-01-15T13:17:32;3.03;;;1.30;;
20454;SDS011;10386;54.314;10.022;2024-01-15T13:19:59;7.30;;;2.00;;
20454;SDS011;10386;54.314;10.022;2024-01-15T13:22:27;3.87;;;1.70;;
20454;SDS011;10386;54.314;10.022;2024-01-15T13:24:58;5.40;;;1.67;;
20454;SDS011;10386;54.314;10.022;2024-01-15T13:27:26;4.77;;;2.33;;
20454;SDS011;10386;54.314;10.022;2024-01-15T13:29:54;4.37;;;2.37;;
20454;SDS011;10386;54.314;10.022;2024-01-15T13:32:24;7.00;;;2.60;;
20454;SDS011;10386;54.314;10.022;2024-01-15T13:34:55;7.77;;;2.33;;
20454;SDS011;10386;54.314;10.022;2024-01-15T13:37:23;4.20;;;1.57;;
20454;SDS011;10386;54.314;10.022;2024-01-15T13:39:51;8.47;;;1.87;;
20454;SDS011;10386;54.314;10.022;2024-01-15T13:42:19;3.17;;;1.50;;
20454;SDS011;10386;54.314;10.022;2024-01-15T13:44:50;3.00;;;1.37;;
20454;SDS011;10386;54.314;10.022;2024-01-15T13:47:19;3.13;;;1.70;;
20454;SDS011;10386;54.314;10.022;2024-01-15T13:49:46;2.67;;;1.67;;
20454;SDS011;10386;54.314;10.022;2024-01-15T13:52:13;1.33;;;1.30;;
20454;SDS011;10386;54.314;10.022;2024-01-15T13:54:40;3.87;;;1.80;;
20454;SDS011;10386;54.314;10.022;2024-01-15T13:57:19;2.10;;;1.77;;
20454;SDS011;10386;54.314;10.022;2024-01-15T13:59:46;3.30;;;1.70;;
20454;SDS011;10386;54.314;10.022;2024-01-15T14:02:14;3.67;;;1.90;;
20454;SDS011;10386;54.314;10.022;2024-01-15T14:04:47;1.87;;;1.37;;
20454;SDS011;10386;54.314;10.022;2024-01-15T14:07:15;5.83;;;1.27;;
20454;SDS011;10386;54.314;10.022;2024-01-15T14:09:42;2.40;;;1.33;;
20454;SDS011;10386;54.314;10.022;2024-01-15T14:12:09;3.60;;;1.50;;
20454;SDS011;10386;54.314;10.022;2024-01-15T14:14:36;1.67;;;1.23;;
20454;SDS011;10386;54.314;10.022;2024-01-15T14:17:03;2.60;;;1.20;;
20454;SDS011;10386;54.314;10.022;2024-01-15T14:19:30;1.33;;;1.23;;
20454;SDS011;10386;54.314;10.022;2024-01-15T14:21:57;4.00;;;1.27;;
20454;SDS011;10386;54.314;10.022;2024-01-15T14:24:24;4.33;;;1.53;;
20454;SDS011;10386;54.314;10.022;2024-01-15T14:26:51;2.17;;;1.40;;
20454;SDS011;10386;54.314;10.022;2024-01-15T14:29:18;2.27;;;1.30;;
20454;SDS011;10386;54.314;10.022;2024-01-15T14:31:49;2.10;;;1.43;;
20454;SDS011;10386;54.314;10.022;2024-01-15T14:34:16;2.30;;;1.50;;
20454;SDS011;10386;54.314;10.022;2024-01-15T14:36:44;4.20;;;1.57;;
20454;SDS011;10386;54.314;10.022;2024-01-15T14:39:13;1.63;;;1.30;;